createdAt,value
2023-03-26T00:00:44.169Z,9.93
2023-03-26T00:03:15.380Z,7.97
2023-03-26T00:05:48.479Z,6.90
2023-03-26T00:08:20.088Z,6.22
2023-03-26T00:10:53.790Z,5.47
2023-03-26T00:13:24.689Z,2.67
2023-03-26T00:15:55.972Z,3.70
2023-03-26T00:18:31.009Z,3.70
2023-03-26T00:21:03.323Z,1.17
2023-03-26T00:23:35.549Z,2.95
2023-03-26T00:26:13.238Z,1.48
2023-03-26T00:28:46.240Z,1.98
2023-03-26T00:31:18.404Z,1.95
2023-03-26T00:33:49.335Z,2.47
2023-03-26T00:36:20.950Z,1.23
2023-03-26T00:38:53.196Z,2.10
2023-03-26T00:41:31.342Z,1.10
2023-03-26T00:44:03.337Z,2.17
2023-03-26T00:46:35.335Z,2.65
2023-03-26T00:49:11.250Z,1.83
2023-03-26T00:51:42.403Z,4.57
2023-03-26T00:54:13.402Z,1.35
2023-03-26T00:56:47.222Z,2.28
2023-03-26T00:59:18.791Z,1.73
2023-03-26T01:01:50.022Z,1.25
2023-03-26T01:04:31.906Z,3.05
2023-03-26T01:07:06.139Z,1.70
2023-03-26T01:09:43.140Z,2.80
2023-03-26T01:12:18.860Z,3.85
2023-03-26T01:14:51.963Z,6.32
2023-03-26T01:17:23.103Z,6.25
2023-03-26T01:20:08.781Z,4.03
2023-03-26T01:22:41.019Z,4.93
2023-03-26T01:25:15.005Z,6.32
2023-03-26T01:27:50.329Z,5.68
2023-03-26T01:30:27.401Z,5.88
2023-03-26T01:33:05.920Z,12.90
2023-03-26T01:35:44.796Z,5.80
2023-03-26T01:38:26.266Z,5.32
2023-03-26T01:41:07.705Z,5.20
2023-03-26T01:43:42.820Z,7.03
2023-03-26T01:46:17.053Z,8.60
2023-03-26T01:48:49.812Z,8.40
2023-03-26T01:51:31.192Z,8.23
2023-03-26T01:54:02.846Z,10.18
2023-03-26T01:56:47.133Z,17.20
2023-03-26T01:59:35.542Z,10.55
2023-03-26T02:02:14.203Z,9.25
2023-03-26T02:04:53.667Z,11.55
2023-03-26T02:07:29.523Z,7.25
2023-03-26T02:10:06.644Z,12.23
2023-03-26T02:12:40.959Z,13.10
2023-03-26T02:15:13.516Z,8.75
2023-03-26T02:17:44.479Z,16.15
2023-03-26T02:20:19.130Z,10.70
2023-03-26T02:22:50.724Z,7.78
2023-03-26T02:25:24.920Z,7.82
2023-03-26T02:27:58.535Z,12.85
2023-03-26T02:30:30.151Z,10.07
2023-03-26T02:33:03.847Z,14.55
2023-03-26T02:35:45.373Z,10.55
2023-03-26T02:38:16.992Z,11.35
2023-03-26T02:40:48.122Z,16.05
2023-03-26T02:43:21.956Z,16.20
2023-03-26T02:45:53.314Z,19.00
2023-03-26T02:48:48.217Z,11.88
2023-03-26T02:51:27.608Z,15.10
2023-03-26T02:54:17.078Z,11.98
2023-03-26T02:56:50.910Z,14.10
2023-03-26T02:59:50.891Z,14.02
2023-03-26T03:02:48.532Z,15.60
2023-03-26T03:05:52.557Z,13.15
2023-03-26T03:08:41.964Z,19.02
2023-03-26T03:11:42.935Z,15.80
2023-03-26T03:14:13.911Z,11.82
2023-03-26T03:16:48.708Z,14.57
2023-03-26T03:19:19.860Z,12.45
2023-03-26T03:21:51.803Z,15.82
2023-03-26T03:24:23.869Z,12.23
2023-03-26T03:26:58.342Z,16.30
2023-03-26T03:29:38.328Z,14.05
2023-03-26T03:32:30.744Z,14.13
2023-03-26T03:35:06.336Z,14.30
2023-03-26T03:37:37.397Z,13.18
2023-03-26T03:40:13.271Z,14.55
2023-03-26T03:42:45.157Z,15.05
2023-03-26T03:45:23.797Z,15.32
2023-03-26T03:48:03.244Z,11.35
2023-03-26T03:50:42.241Z,13.82
2023-03-26T03:53:37.442Z,17.20
2023-03-26T03:56:10.586Z,14.70
2023-03-26T03:59:04.344Z,12.88
2023-03-26T04:01:38.603Z,13.35
2023-03-26T04:04:16.615Z,12.25
2023-03-26T04:06:56.309Z,16.08
2023-03-26T04:09:29.826Z,16.40
2023-03-26T04:12:04.962Z,6.97
2023-03-26T04:14:50.294Z,12.75
2023-03-26T04:17:24.527Z,15.55
2023-03-26T04:20:06.418Z,17.95
2023-03-26T04:22:37.789Z,11.82
2023-03-26T04:25:13.192Z,15.38
2023-03-26T04:28:06.825Z,11.05
2023-03-26T04:30:57.438Z,8.82
2023-03-26T04:33:39.539Z,7.78
2023-03-26T04:36:16.260Z,9.20
2023-03-26T04:41:26.611Z,5.18
2023-03-26T04:44:06.121Z,8.32
2023-03-26T04:46:56.149Z,15.02
2023-03-26T04:49:34.792Z,9.43
2023-03-26T04:52:09.878Z,11.85
2023-03-26T04:55:01.510Z,9.57
2023-03-26T04:57:39.194Z,8.88
2023-03-26T05:00:20.774Z,6.80
2023-03-26T05:02:58.192Z,5.65
2023-03-26T05:05:29.992Z,5.95
2023-03-26T05:08:05.846Z,6.20
2023-03-26T05:10:36.359Z,9.60
2023-03-26T05:13:08.931Z,8.38
2023-03-26T05:15:42.282Z,8.15
2023-03-26T05:18:16.848Z,7.25
2023-03-26T05:20:52.292Z,6.70
2023-03-26T05:23:25.410Z,3.40
2023-03-26T05:26:07.797Z,5.88
2023-03-26T05:28:39.474Z,7.60
2023-03-26T05:31:18.144Z,5.68
2023-03-26T05:33:52.039Z,5.65
2023-03-26T05:36:22.866Z,8.65
2023-03-26T05:39:07.242Z,3.40
2023-03-26T05:41:57.938Z,5.15
2023-03-26T05:44:36.840Z,7.20
2023-03-26T05:47:17.342Z,4.55
2023-03-26T05:49:48.062Z,7.88
2023-03-26T05:52:19.308Z,8.45
2023-03-26T05:55:22.150Z,5.28
2023-03-26T05:58:14.151Z,4.70
2023-03-26T06:01:05.782Z,4.65
2023-03-26T06:03:56.841Z,4.15
2023-03-26T06:06:33.200Z,3.80
2023-03-26T06:09:04.891Z,6.82
2023-03-26T06:11:38.043Z,9.02
2023-03-26T06:14:10.022Z,6.47
2023-03-26T06:16:43.999Z,6.68
2023-03-26T06:19:21.817Z,7.28
2023-03-26T06:21:55.833Z,8.88
2023-03-26T06:24:30.311Z,4.45
2023-03-26T06:27:29.562Z,7.75
2023-03-26T06:30:18.682Z,2.95
2023-03-26T06:33:11.688Z,5.03
2023-03-26T06:35:49.006Z,8.68
2023-03-26T06:38:20.768Z,4.10
2023-03-26T06:40:51.504Z,4.55
2023-03-26T06:43:27.438Z,6.50
2023-03-26T06:46:13.520Z,6.97
2023-03-26T06:49:07.285Z,4.10
2023-03-26T06:52:04.174Z,5.97
2023-03-26T06:55:03.978Z,10.40
2023-03-26T06:57:52.233Z,2.78
2023-03-26T07:00:44.163Z,5.93
2023-03-26T07:03:37.330Z,9.18
2023-03-26T07:06:27.242Z,8.50
2023-03-26T07:09:24.427Z,8.75
2023-03-26T07:12:10.917Z,11.30
2023-03-26T07:15:19.484Z,11.10
2023-03-26T07:18:11.079Z,11.02
2023-03-26T07:20:44.538Z,5.88
2023-03-26T07:23:15.833Z,6.10
2023-03-26T07:26:26.029Z,9.82
2023-03-26T07:29:38.319Z,10.02
2023-03-26T07:32:33.068Z,11.45
2023-03-26T07:35:33.459Z,9.63
2023-03-26T07:38:39.889Z,11.63
2023-03-26T07:41:37.988Z,10.50
2023-03-26T07:44:40.232Z,14.23
2023-03-26T07:47:39.106Z,9.40
2023-03-26T07:50:42.780Z,11.88
2023-03-26T07:53:23.494Z,10.30
2023-03-26T07:56:18.424Z,13.48
2023-03-26T07:59:13.816Z,8.40
2023-03-26T08:02:43.263Z,10.18
2023-03-26T08:05:37.564Z,19.60
2023-03-26T08:08:25.725Z,15.95
2023-03-26T08:11:31.258Z,12.85
2023-03-26T08:14:14.878Z,12.00
2023-03-26T08:16:51.160Z,11.20
2023-03-26T08:19:52.749Z,11.93
2023-03-26T08:22:29.195Z,12.60
2023-03-26T08:27:57.421Z,17.33
2023-03-26T08:30:29.335Z,14.18
2023-03-26T08:33:02.632Z,21.60
2023-03-26T08:35:35.432Z,14.07
2023-03-26T08:38:06.028Z,9.68
2023-03-26T08:41:19.601Z,9.00
2023-03-26T08:44:37.792Z,9.77
2023-03-26T08:47:33.011Z,8.87
2023-03-26T08:50:33.606Z,13.98
2023-03-26T08:53:53.218Z,9.40
2023-03-26T08:56:29.533Z,7.60
2023-03-26T08:59:33.406Z,9.30
2023-03-26T09:02:28.872Z,7.38
2023-03-26T09:05:35.228Z,9.45
2023-03-26T09:08:53.861Z,8.63
2023-03-26T09:11:57.186Z,6.40
2023-03-26T09:14:55.896Z,4.93
2023-03-26T09:18:06.221Z,8.98
2023-03-26T09:21:08.865Z,6.22
2023-03-26T09:24:14.638Z,6.50
2023-03-26T09:26:59.878Z,5.53
2023-03-26T09:30:00.116Z,6.10
2023-03-26T09:33:07.568Z,6.00
2023-03-26T09:36:04.396Z,4.80
2023-03-26T09:38:46.037Z,2.75
2023-03-26T09:41:20.918Z,15.75
2023-03-26T09:44:21.224Z,9.30
2023-03-26T09:47:07.725Z,19.50
2023-03-26T09:49:54.676Z,12.03
2023-03-26T09:52:46.794Z,6.55
2023-03-26T09:55:33.722Z,9.13
2023-03-26T09:58:24.219Z,4.55
2023-03-26T10:01:05.940Z,3.50
2023-03-26T10:03:51.035Z,7.70
2023-03-26T10:06:44.657Z,3.90
2023-03-26T10:09:37.395Z,6.13
2023-03-26T10:12:25.308Z,4.57
2023-03-26T10:15:20.651Z,3.63
2023-03-26T10:18:27.090Z,3.55
2023-03-26T10:21:03.822Z,4.80
2023-03-26T10:24:07.360Z,3.78
2023-03-26T10:27:08.649Z,4.25
2023-03-26T10:30:07.979Z,4.28
2023-03-26T10:32:47.026Z,12.57
2023-03-26T10:35:33.085Z,18.10
2023-03-26T10:38:18.622Z,6.50
2023-03-26T10:41:00.721Z,9.32
2023-03-26T10:44:08.829Z,8.65
2023-03-26T10:47:08.847Z,5.43
2023-03-26T10:49:57.734Z,7.38
2023-03-26T10:52:34.511Z,3.92
2023-03-26T10:55:16.354Z,2.97
2023-03-26T10:57:52.921Z,2.10
2023-03-26T11:00:29.285Z,2.03
2023-03-26T11:03:21.066Z,2.03
2023-03-26T11:06:01.790Z,3.58
2023-03-26T11:08:43.942Z,2.33
2023-03-26T11:11:22.814Z,2.40
2023-03-26T11:14:01.530Z,4.57
2023-03-26T11:16:45.583Z,1.42
2023-03-26T11:19:23.756Z,3.90
2023-03-26T11:22:04.279Z,1.55
2023-03-26T11:25:00.024Z,2.03
2023-03-26T11:27:42.520Z,1.70
2023-03-26T11:30:27.387Z,2.25
2023-03-26T11:33:07.518Z,2.70
2023-03-26T11:35:41.770Z,2.42
2023-03-26T11:38:21.361Z,3.60
2023-03-26T11:43:43.544Z,3.63
2023-03-26T11:46:17.698Z,4.10
2023-03-26T11:48:55.396Z,3.65
2023-03-26T11:51:30.215Z,6.47
2023-03-26T11:54:00.791Z,5.35
2023-03-26T11:56:34.878Z,5.20
2023-03-26T11:59:09.351Z,8.57
2023-03-26T12:01:51.377Z,7.60
2023-03-26T12:04:31.983Z,6.53
2023-03-26T12:07:19.206Z,6.13
2023-03-26T12:09:56.696Z,3.38
2023-03-26T12:12:29.409Z,6.70
2023-03-26T12:15:00.682Z,7.45
2023-03-26T12:17:35.070Z,5.85
2023-03-26T12:20:33.698Z,6.30
2023-03-26T12:23:05.710Z,7.60
2023-03-26T12:25:39.195Z,3.75
2023-03-26T12:28:21.641Z,7.10
2023-03-26T12:31:01.212Z,5.55
2023-03-26T12:33:34.437Z,5.85
2023-03-26T12:36:26.810Z,5.90
2023-03-26T12:39:16.656Z,6.78
2023-03-26T12:44:41.820Z,8.18
2023-03-26T12:44:59.310Z,5.00
2023-03-26T12:48:00.199Z,6.45
2023-03-26T12:50:34.154Z,8.00
2023-03-26T12:53:26.790Z,6.18
2023-03-26T12:56:04.504Z,3.83
2023-03-26T12:58:58.865Z,5.32
2023-03-26T13:01:38.890Z,4.32
2023-03-26T13:04:31.114Z,5.60
2023-03-26T13:07:07.982Z,6.47
2023-03-26T13:12:30.731Z,3.50
2023-03-26T13:15:19.209Z,5.80
2023-03-26T13:18:02.402Z,5.75
2023-03-26T13:20:47.223Z,3.60
2023-03-26T13:23:27.413Z,8.55
2023-03-26T13:26:12.357Z,6.88
2023-03-26T13:28:52.843Z,6.32
2023-03-26T13:31:31.283Z,8.38
2023-03-26T13:34:12.342Z,8.82
2023-03-26T13:36:52.008Z,7.30
2023-03-26T13:39:30.819Z,8.93
2023-03-26T13:42:36.928Z,6.68
2023-03-26T13:45:17.709Z,7.88
2023-03-26T13:47:52.171Z,5.97
2023-03-26T13:50:27.037Z,6.97
2023-03-26T13:53:03.030Z,4.80
2023-03-26T13:55:38.901Z,5.93
2023-03-26T13:58:17.373Z,7.00
2023-03-26T14:00:57.033Z,7.13
2023-03-26T14:03:36.308Z,5.90
2023-03-26T14:06:14.622Z,5.75
2023-03-26T14:08:49.377Z,4.45
2023-03-26T14:11:25.635Z,6.38
2023-03-26T14:13:59.676Z,8.10
2023-03-26T14:16:38.477Z,4.32
2023-03-26T14:19:34.651Z,7.45
2023-03-26T14:22:18.482Z,5.18
2023-03-26T14:25:19.995Z,7.65
2023-03-26T14:28:05.027Z,5.30
2023-03-26T14:30:54.652Z,6.40
2023-03-26T14:34:03.455Z,16.38
2023-03-26T14:36:53.092Z,8.07
2023-03-26T14:39:40.678Z,5.63
2023-03-26T14:42:20.872Z,5.93
2023-03-26T14:45:20.018Z,7.70
2023-03-26T14:48:05.060Z,5.88
2023-03-26T14:50:54.781Z,6.70
2023-03-26T14:53:33.636Z,3.90
2023-03-26T14:56:37.404Z,6.88
2023-03-26T14:59:49.659Z,5.97
2023-03-26T15:03:03.597Z,5.30
2023-03-26T15:06:01.673Z,5.95
2023-03-26T15:09:15.260Z,8.65
2023-03-26T15:11:54.602Z,7.95
2023-03-26T15:15:11.249Z,6.25
2023-03-26T15:18:10.598Z,7.25
2023-03-26T15:21:21.921Z,11.23
2023-03-26T15:24:25.752Z,11.82
2023-03-26T15:27:37.164Z,6.85
2023-03-26T15:30:52.107Z,8.77
2023-03-26T15:33:54.269Z,8.00
2023-03-26T15:37:06.598Z,9.80
2023-03-26T15:40:12.280Z,7.13
2023-03-26T15:42:56.549Z,10.07
2023-03-26T15:45:39.369Z,7.80
2023-03-26T15:48:51.765Z,8.07
2023-03-26T15:51:46.974Z,6.47
2023-03-26T15:54:28.673Z,5.32
2023-03-26T15:57:12.582Z,12.32
2023-03-26T15:59:52.502Z,5.78
2023-03-26T16:02:34.957Z,8.55
2023-03-26T16:05:24.483Z,10.82
2023-03-26T16:08:05.412Z,8.10
2023-03-26T16:10:48.716Z,7.80
2023-03-26T16:13:38.415Z,6.20
2023-03-26T16:16:27.225Z,7.30
2023-03-26T16:19:00.667Z,7.30
2023-03-26T16:21:47.613Z,5.75
2023-03-26T16:24:36.358Z,8.52
2023-03-26T16:27:35.135Z,8.65
2023-03-26T16:30:24.932Z,11.05
2023-03-26T16:32:58.998Z,9.20
2023-03-26T16:35:48.356Z,8.60
2023-03-26T16:38:21.802Z,9.70
2023-03-26T16:41:05.226Z,7.78
2023-03-26T16:43:54.396Z,4.78
2023-03-26T16:46:34.607Z,11.02
2023-03-26T16:49:15.182Z,7.38
2023-03-26T16:52:01.702Z,9.52
2023-03-26T16:54:42.645Z,7.57
2023-03-26T16:57:24.824Z,7.82
2023-03-26T17:00:25.090Z,7.80
2023-03-26T17:03:04.288Z,6.47
2023-03-26T17:05:39.725Z,10.30
2023-03-26T17:08:35.561Z,7.68
2023-03-26T17:11:19.756Z,8.82
2023-03-26T17:14:03.621Z,11.00
2023-03-26T17:16:44.773Z,9.63
2023-03-26T17:19:28.843Z,9.77
2023-03-26T17:22:04.289Z,11.93
2023-03-26T17:24:49.048Z,10.50
2023-03-26T17:27:50.319Z,7.10
2023-03-26T17:30:45.048Z,10.75
2023-03-26T17:33:27.043Z,12.30
2023-03-26T17:36:33.035Z,8.10
2023-03-26T17:39:20.639Z,6.72
2023-03-26T17:42:19.873Z,8.80
2023-03-26T17:44:52.796Z,8.30
2023-03-26T17:47:32.974Z,7.18
2023-03-26T17:50:14.473Z,13.25
2023-03-26T17:52:56.763Z,9.25
2023-03-26T17:55:31.512Z,8.48
2023-03-26T17:58:03.172Z,8.60
2023-03-26T18:00:38.507Z,7.95
2023-03-26T18:03:17.032Z,8.57
2023-03-26T18:05:52.554Z,4.38
2023-03-26T18:08:44.411Z,5.70
2023-03-26T18:11:51.064Z,10.65
2023-03-26T18:14:52.998Z,11.55
2023-03-26T18:17:23.914Z,7.00
2023-03-26T18:19:56.553Z,8.77
2023-03-26T18:22:33.295Z,9.00
2023-03-26T18:25:05.539Z,6.10
2023-03-26T18:27:40.156Z,7.93
2023-03-26T18:30:19.334Z,9.25
2023-03-26T18:33:00.826Z,7.20
2023-03-26T18:35:44.787Z,7.40
2023-03-26T18:38:35.266Z,7.38
2023-03-26T18:41:10.084Z,9.13
2023-03-26T18:43:44.480Z,13.70
2023-03-26T18:46:17.050Z,8.25
2023-03-26T18:48:49.249Z,8.45
2023-03-26T18:51:23.342Z,8.43
2023-03-26T18:54:00.132Z,6.60
2023-03-26T18:56:34.434Z,7.57
2023-03-26T18:59:06.934Z,10.60
2023-03-26T19:01:40.321Z,12.90
2023-03-26T19:04:12.076Z,5.63
2023-03-26T19:06:45.199Z,8.93
2023-03-26T19:09:31.105Z,10.65
2023-03-26T19:12:09.584Z,8.00
2023-03-26T19:14:57.063Z,8.07
2023-03-26T19:19:59.537Z,10.43
2023-03-26T19:22:32.311Z,8.23
2023-03-26T19:25:06.442Z,10.05
2023-03-26T19:27:38.612Z,14.93
2023-03-26T19:30:11.445Z,11.75
2023-03-26T19:32:42.000Z,12.63
2023-03-26T19:35:24.634Z,10.52
2023-03-26T19:37:56.263Z,6.85
2023-03-26T19:40:30.796Z,8.48
2023-03-26T19:43:03.777Z,7.75
2023-03-26T19:45:37.798Z,10.07
2023-03-26T19:48:45.676Z,5.45
2023-03-26T19:51:23.621Z,11.70
2023-03-26T19:53:57.360Z,7.80
2023-03-26T19:56:30.875Z,8.38
2023-03-26T19:59:01.446Z,5.70
2023-03-26T20:01:33.966Z,7.10
2023-03-26T20:04:07.744Z,7.90
2023-03-26T20:06:43.693Z,6.45
2023-03-26T20:09:16.635Z,3.17
2023-03-26T20:11:52.841Z,7.53
2023-03-26T20:14:26.576Z,4.03
2023-03-26T20:16:58.073Z,3.67
2023-03-26T20:19:30.006Z,8.93
2023-03-26T20:22:01.145Z,7.28
2023-03-26T20:24:32.732Z,7.75
2023-03-26T20:27:06.424Z,3.78
2023-03-26T20:29:37.618Z,6.65
2023-03-26T20:32:10.270Z,5.45
2023-03-26T20:34:41.742Z,5.25
2023-03-26T20:37:12.707Z,4.95
2023-03-26T20:39:46.269Z,4.97
2023-03-26T20:42:20.308Z,3.47
2023-03-26T20:44:51.367Z,5.18
2023-03-26T20:47:22.517Z,4.97
2023-03-26T20:49:53.857Z,1.65
2023-03-26T20:52:26.051Z,2.63
2023-03-26T20:54:59.460Z,3.95
2023-03-26T20:57:34.236Z,2.45
2023-03-26T21:00:09.696Z,2.65
2023-03-26T21:02:42.022Z,1.35
2023-03-26T21:05:16.104Z,1.85
2023-03-26T21:07:48.772Z,3.20
2023-03-26T21:10:20.696Z,1.83
2023-03-26T21:12:59.867Z,3.10
2023-03-26T21:15:32.064Z,2.03
2023-03-26T21:18:03.852Z,2.90
2023-03-26T21:20:37.474Z,2.50
2023-03-26T21:23:15.091Z,3.88
2023-03-26T21:25:55.903Z,3.38
2023-03-26T21:28:41.951Z,3.25
2023-03-26T21:31:19.304Z,1.38
2023-03-26T21:33:52.224Z,1.83
2023-03-26T21:36:24.081Z,2.33
2023-03-26T21:39:00.112Z,1.42
2023-03-26T21:41:41.624Z,2.27
2023-03-26T21:44:15.228Z,2.17
2023-03-26T21:46:47.533Z,1.70
2023-03-26T21:49:20.512Z,1.20
2023-03-26T21:51:52.152Z,5.15
2023-03-26T21:54:28.891Z,1.10
2023-03-26T21:57:12.559Z,1.98
2023-03-26T21:59:53.169Z,1.63
2023-03-26T22:02:30.716Z,1.63
2023-03-26T22:05:07.609Z,1.77
2023-03-26T22:07:49.674Z,1.63
2023-03-26T22:10:20.992Z,2.22
2023-03-26T22:12:52.036Z,1.85
2023-03-26T22:15:27.097Z,0.88
2023-03-26T22:17:58.406Z,3.08
2023-03-26T22:20:29.533Z,2.28
2023-03-26T22:23:01.295Z,3.70
2023-03-26T22:25:33.261Z,4.45
2023-03-26T22:28:04.684Z,3.97
2023-03-26T22:30:39.086Z,4.28
2023-03-26T22:33:12.269Z,4.28
2023-03-26T22:35:45.552Z,3.00
2023-03-26T22:38:17.396Z,4.63
2023-03-26T22:40:48.291Z,1.73
2023-03-26T22:43:19.352Z,2.97
2023-03-26T22:45:56.134Z,2.80
2023-03-26T22:51:01.946Z,3.15
2023-03-26T22:53:33.998Z,2.83
2023-03-26T22:56:05.064Z,5.15
2023-03-26T22:58:37.388Z,3.33
2023-03-26T23:01:13.347Z,1.77
2023-03-26T23:03:47.602Z,3.20
2023-03-26T23:06:18.987Z,3.20
2023-03-26T23:08:50.162Z,3.30
2023-03-26T23:11:23.612Z,1.85
2023-03-26T23:13:54.682Z,1.60
2023-03-26T23:16:28.393Z,2.00
2023-03-26T23:18:59.333Z,3.95
2023-03-26T23:21:30.141Z,2.22
2023-03-26T23:24:01.203Z,1.65
2023-03-26T23:26:43.849Z,2.92
2023-03-26T23:29:20.985Z,2.15
2023-03-26T23:31:56.453Z,5.68
2023-03-26T23:34:27.664Z,3.75
2023-03-26T23:36:58.656Z,3.97
2023-03-26T23:39:31.384Z,4.40
2023-03-26T23:42:02.406Z,2.95
2023-03-26T23:44:34.452Z,3.83
2023-03-26T23:47:10.926Z,3.88
2023-03-26T23:49:42.494Z,4.35
2023-03-26T23:52:14.003Z,5.45
2023-03-26T23:54:45.877Z,3.97
2023-03-26T23:57:18.704Z,6.93
2023-03-26T23:59:49.600Z,6.05
